createdAt,value
2022-12-23T00:03:05.046Z,28.10
2022-12-23T00:05:38.070Z,27.30
2022-12-23T00:08:06.095Z,28.80
2022-12-23T00:10:33.930Z,28.00
2022-12-23T00:13:19.485Z,27.70
2022-12-23T00:15:46.389Z,28.70
2022-12-23T00:18:13.071Z,28.90
2022-12-23T00:23:06.589Z,28.80
2022-12-23T00:25:43.958Z,30.40
2022-12-23T00:28:13.633Z,30.00
2022-12-23T00:30:58.994Z,28.20
2022-12-23T00:33:28.930Z,26.90
2022-12-23T00:35:55.971Z,27.90
2022-12-23T00:38:41.645Z,26.40
2022-12-23T00:41:35.584Z,27.90
2022-12-23T00:44:03.766Z,28.80
2022-12-23T00:46:30.777Z,29.50
2022-12-23T00:49:16.514Z,28.60
2022-12-23T00:51:43.174Z,28.30
2022-12-23T00:56:36.466Z,26.20
2022-12-23T00:59:03.184Z,26.30
2022-12-23T01:04:35.934Z,25.60
2022-12-23T01:07:03.515Z,27.90
2022-12-23T01:09:30.497Z,30.10
2022-12-23T01:11:57.261Z,27.40
2022-12-23T01:14:24.801Z,27.50
2022-12-23T01:16:51.738Z,27.90
2022-12-23T01:19:19.176Z,28.90
2022-12-23T01:21:45.926Z,29.00
2022-12-23T01:24:12.627Z,27.30
2022-12-23T01:29:05.985Z,25.30
2022-12-23T01:31:32.811Z,27.80
2022-12-23T01:33:59.564Z,30.20
2022-12-23T01:36:26.410Z,29.30
2022-12-23T01:38:53.216Z,27.60
2022-12-23T01:41:42.172Z,29.10
2022-12-23T01:45:07.714Z,25.70
2022-12-23T01:47:49.483Z,26.80
2022-12-23T01:50:54.832Z,27.30
2022-12-23T01:53:30.630Z,25.70
2022-12-23T01:56:02.944Z,25.90
2022-12-23T01:58:37.963Z,27.00
2022-12-23T02:01:24.556Z,25.50
2022-12-23T02:03:54.990Z,27.40
2022-12-23T02:06:43.409Z,26.30
2022-12-23T02:09:18.671Z,26.40
2022-12-23T02:12:31.790Z,24.30
2022-12-23T02:15:42.051Z,22.80
2022-12-23T02:18:21.259Z,22.90
2022-12-23T02:20:53.904Z,22.70
2022-12-23T02:23:48.546Z,23.40
2022-12-23T02:26:27.520Z,22.90
2022-12-23T02:29:00.230Z,23.90
2022-12-23T02:34:17.570Z,23.80
2022-12-23T02:37:09.407Z,22.60
2022-12-23T02:39:49.373Z,22.50
2022-12-23T02:42:25.976Z,23.70
2022-12-23T02:45:01.765Z,22.70
2022-12-23T02:47:52.687Z,21.80
2022-12-23T02:50:36.317Z,21.70
2022-12-23T02:53:27.273Z,22.20
2022-12-23T02:55:56.364Z,23.00
2022-12-23T02:58:29.276Z,22.40
2022-12-23T03:00:58.117Z,23.70
2022-12-23T03:03:26.271Z,23.90
2022-12-23T03:05:54.426Z,23.20
2022-12-23T03:08:30.343Z,24.00
2022-12-23T03:11:15.208Z,24.30
2022-12-23T03:14:11.007Z,24.00
2022-12-23T03:17:21.045Z,24.30
2022-12-23T03:19:57.187Z,27.10
2022-12-23T03:22:40.796Z,25.30
2022-12-23T03:25:37.944Z,24.20
2022-12-23T03:28:15.937Z,23.80
2022-12-23T03:30:46.564Z,23.50
2022-12-23T03:33:42.460Z,25.30
2022-12-23T03:36:18.277Z,23.90
2022-12-23T03:38:46.165Z,23.90
2022-12-23T03:41:18.415Z,24.60
2022-12-23T03:43:55.116Z,24.10
2022-12-23T03:46:38.037Z,24.70
2022-12-23T03:49:15.317Z,23.10
2022-12-23T03:51:55.471Z,23.40
2022-12-23T03:54:31.684Z,24.10
2022-12-23T03:57:03.582Z,22.50
2022-12-23T03:59:37.194Z,23.10
2022-12-23T04:02:09.899Z,23.00
2022-12-23T04:04:45.479Z,23.60
2022-12-23T04:07:30.576Z,25.30
2022-12-23T04:09:58.715Z,24.90
2022-12-23T04:12:30.132Z,24.60
2022-12-23T04:14:57.395Z,25.00
2022-12-23T04:17:24.189Z,24.00
2022-12-23T04:19:52.449Z,25.30
2022-12-23T04:22:19.233Z,26.20
2022-12-23T04:24:45.978Z,23.60
2022-12-23T04:27:14.731Z,24.00
2022-12-23T04:29:41.659Z,24.50
2022-12-23T04:32:09.513Z,24.20
2022-12-23T04:34:36.211Z,23.30
2022-12-23T04:39:29.553Z,23.10
2022-12-23T04:44:23.018Z,22.30
2022-12-23T04:46:49.757Z,22.90
2022-12-23T04:49:16.602Z,23.70
2022-12-23T04:51:43.272Z,23.10
2022-12-23T04:56:36.528Z,23.40
2022-12-23T05:01:31.129Z,23.30
2022-12-23T05:03:57.876Z,25.10
2022-12-23T05:08:51.238Z,22.40
2022-12-23T05:11:17.998Z,24.00
2022-12-23T05:13:44.906Z,23.80
2022-12-23T05:16:11.585Z,23.30
2022-12-23T05:21:05.340Z,23.90
2022-12-23T05:23:32.108Z,23.40
2022-12-23T05:25:59.053Z,23.70
2022-12-23T05:28:25.889Z,26.50
2022-12-23T05:31:03.871Z,27.00
2022-12-23T05:33:32.833Z,25.60
2022-12-23T05:35:59.729Z,23.40
2022-12-23T05:38:27.163Z,24.20
2022-12-23T05:40:54.121Z,23.80
2022-12-23T05:43:21.424Z,24.80
2022-12-23T05:45:49.564Z,23.80
2022-12-23T05:48:16.565Z,27.20
2022-12-23T05:50:43.329Z,25.70
2022-12-23T05:53:10.222Z,27.10
2022-12-23T05:55:37.062Z,25.30
2022-12-23T05:58:03.815Z,24.60
2022-12-23T06:00:30.721Z,24.80
2022-12-23T06:02:57.630Z,24.10
2022-12-23T06:05:24.617Z,24.50
2022-12-23T06:07:51.566Z,25.80
2022-12-23T06:10:18.823Z,25.90
2022-12-23T06:12:45.494Z,28.60
2022-12-23T06:17:39.554Z,24.50
2022-12-23T06:20:07.115Z,25.70
2022-12-23T06:22:33.947Z,24.20
2022-12-23T06:25:00.596Z,25.80
2022-12-23T06:29:53.980Z,24.50
2022-12-23T06:32:20.738Z,25.30
2022-12-23T06:34:49.109Z,26.50
2022-12-23T06:37:15.860Z,26.10
2022-12-23T06:39:42.546Z,24.30
2022-12-23T06:44:35.746Z,25.00
2022-12-23T06:49:29.226Z,22.30
2022-12-23T06:51:55.973Z,24.70
2022-12-23T06:54:22.907Z,24.30
2022-12-23T06:56:49.564Z,24.50
2022-12-23T07:01:42.990Z,26.80
2022-12-23T07:04:10.592Z,28.00
2022-12-23T07:06:37.811Z,27.30
2022-12-23T07:09:04.587Z,24.90
2022-12-23T07:11:31.543Z,26.20
2022-12-23T07:13:59.707Z,27.50
2022-12-23T07:16:26.948Z,24.60
2022-12-23T07:18:53.795Z,24.80
2022-12-23T07:21:28.601Z,24.20
2022-12-23T07:23:56.511Z,27.30
2022-12-23T07:26:23.186Z,25.30
2022-12-23T07:31:17.042Z,26.10
2022-12-23T07:33:44.076Z,26.00
2022-12-23T07:36:10.838Z,24.40
2022-12-23T07:38:37.659Z,24.70
2022-12-23T07:41:04.412Z,23.50
2022-12-23T07:43:31.094Z,21.50
2022-12-23T07:46:00.848Z,19.70
2022-12-23T07:48:28.313Z,21.70
2022-12-23T07:51:01.884Z,21.00
2022-12-23T07:53:28.827Z,20.60
2022-12-23T07:55:56.791Z,20.20
2022-12-23T07:58:24.393Z,21.50
2022-12-23T08:00:51.172Z,19.30
2022-12-23T08:03:18.108Z,18.70
2022-12-23T08:05:44.953Z,17.90
2022-12-23T08:10:44.446Z,17.20
2022-12-23T08:13:14.712Z,17.00
2022-12-23T08:18:08.163Z,16.40
2022-12-23T08:20:34.898Z,15.70
2022-12-23T08:23:01.700Z,16.20
2022-12-23T08:27:55.104Z,19.10
2022-12-23T08:30:21.862Z,19.40
2022-12-23T08:32:48.608Z,18.50
2022-12-23T08:35:15.426Z,18.30
2022-12-23T08:37:42.167Z,16.80
2022-12-23T08:40:09.950Z,17.10
2022-12-23T08:42:36.792Z,18.30
2022-12-23T08:45:03.867Z,18.90
2022-12-23T08:47:30.569Z,17.10
2022-12-23T08:52:23.829Z,16.80
2022-12-23T08:57:17.090Z,18.60
2022-12-23T08:59:43.781Z,19.20
2022-12-23T09:02:12.116Z,19.40
2022-12-23T09:04:39.240Z,20.40
2022-12-23T09:07:06.226Z,19.30
2022-12-23T09:09:32.983Z,18.10
2022-12-23T09:11:59.846Z,19.60
2022-12-23T09:14:26.661Z,19.40
2022-12-23T09:16:53.359Z,19.10
2022-12-23T09:19:20.649Z,18.90
2022-12-23T09:21:47.323Z,19.80
2022-12-23T09:24:14.115Z,19.80
2022-12-23T09:26:40.967Z,19.60
2022-12-23T09:29:07.722Z,17.90
2022-12-23T09:31:37.736Z,18.60
2022-12-23T09:34:06.065Z,19.80
2022-12-23T09:36:32.820Z,20.00
2022-12-23T09:38:59.628Z,20.60
2022-12-23T09:42:01.625Z,20.20
2022-12-23T09:45:05.962Z,18.60
2022-12-23T09:47:34.182Z,18.30
2022-12-23T09:50:10.306Z,18.70
2022-12-23T09:52:57.544Z,19.80
2022-12-23T09:55:29.244Z,20.70
2022-12-23T09:58:03.556Z,21.60
2022-12-23T10:00:39.713Z,22.70
2022-12-23T10:03:40.582Z,22.70
2022-12-23T10:06:19.358Z,22.10
2022-12-23T10:08:49.052Z,21.20
2022-12-23T10:11:30.032Z,21.80
2022-12-23T10:14:02.099Z,20.20
2022-12-23T10:16:55.053Z,22.70
2022-12-23T10:19:43.373Z,22.80
2022-12-23T10:22:33.357Z,26.30
2022-12-23T10:25:02.139Z,27.20
2022-12-23T10:27:39.238Z,26.90
2022-12-23T10:30:54.109Z,29.10
2022-12-23T10:33:18.057Z,26.00
2022-12-23T10:35:58.319Z,27.40
2022-12-23T10:38:30.206Z,27.60
2022-12-23T10:41:09.036Z,31.00
2022-12-23T10:43:45.150Z,28.90
2022-12-23T10:46:23.930Z,29.10
2022-12-23T10:49:12.276Z,25.90
2022-12-23T10:51:47.836Z,28.60
2022-12-23T10:54:28.439Z,30.60
2022-12-23T10:56:55.643Z,26.50
2022-12-23T10:59:27.095Z,28.00
2022-12-23T11:02:23.043Z,27.30
2022-12-23T11:04:50.391Z,25.90
2022-12-23T11:10:23.541Z,27.60
2022-12-23T11:12:53.217Z,27.20
2022-12-23T11:15:26.116Z,25.80
2022-12-23T11:18:12.775Z,27.30
2022-12-23T11:20:44.454Z,25.20
2022-12-23T11:23:33.210Z,26.10
2022-12-23T11:26:18.790Z,26.10
2022-12-23T11:28:53.131Z,24.90
2022-12-23T11:31:35.513Z,24.90
2022-12-23T11:34:14.397Z,26.30
2022-12-23T11:36:41.484Z,23.80
2022-12-23T11:39:14.205Z,25.40
2022-12-23T11:41:50.092Z,26.30
2022-12-23T11:44:22.700Z,27.00
2022-12-23T11:46:50.567Z,24.10
2022-12-23T11:49:28.035Z,23.30
2022-12-23T11:52:16.914Z,23.70
2022-12-23T11:54:54.453Z,22.60
2022-12-23T11:57:30.883Z,20.10
2022-12-23T12:00:02.540Z,23.30
2022-12-23T12:02:43.630Z,20.10
2022-12-23T12:05:16.592Z,23.30
2022-12-23T12:07:45.250Z,20.20
2022-12-23T12:10:33.522Z,22.90
2022-12-23T12:13:05.952Z,21.10
2022-12-23T12:15:53.201Z,20.90
2022-12-23T12:18:22.171Z,20.20
2022-12-23T12:20:53.984Z,21.30
2022-12-23T12:23:39.528Z,21.40
2022-12-23T12:26:12.555Z,20.90
2022-12-23T12:28:43.801Z,19.60
2022-12-23T12:31:26.868Z,20.30
2022-12-23T12:34:13.738Z,22.70
2022-12-23T12:36:59.832Z,21.70
2022-12-23T12:39:41.362Z,21.10
2022-12-23T12:42:21.886Z,21.80
2022-12-23T12:45:16.633Z,21.90
2022-12-23T12:48:13.079Z,19.80
2022-12-23T12:51:10.936Z,21.10
2022-12-23T12:53:46.950Z,20.70
2022-12-23T12:56:30.992Z,20.70
2022-12-23T12:58:58.588Z,19.10
2022-12-23T13:01:56.968Z,18.80
2022-12-23T13:04:59.496Z,19.10
2022-12-23T13:07:54.360Z,18.80
2022-12-23T13:10:53.211Z,19.90
2022-12-23T13:13:51.194Z,18.60
2022-12-23T13:16:36.319Z,19.70
2022-12-23T13:19:40.823Z,19.50
2022-12-23T13:22:16.484Z,19.10
2022-12-23T13:25:03.819Z,20.30
2022-12-23T13:27:41.239Z,21.40
2022-12-23T13:30:18.033Z,21.70
2022-12-23T13:33:09.144Z,20.10
2022-12-23T13:36:33.827Z,21.20
2022-12-23T13:39:25.312Z,20.00
2022-12-23T13:41:58.588Z,18.90
2022-12-23T13:44:31.170Z,19.80
2022-12-23T13:47:16.356Z,20.40
2022-12-23T13:49:53.067Z,19.60
2022-12-23T13:52:44.270Z,19.80
2022-12-23T13:55:16.830Z,19.60
2022-12-23T13:58:18.109Z,19.80
2022-12-23T14:00:45.467Z,19.00
2022-12-23T14:03:15.069Z,19.20
2022-12-23T14:05:45.314Z,19.00
2022-12-23T14:08:26.615Z,21.20
2022-12-23T14:11:27.405Z,19.10
2022-12-23T14:14:06.109Z,17.70
2022-12-23T14:16:45.184Z,18.60
2022-12-23T14:19:11.910Z,20.50
2022-12-23T14:21:46.738Z,20.80
2022-12-23T14:24:54.908Z,22.70
2022-12-23T14:27:33.828Z,27.80
2022-12-23T14:30:15.686Z,25.60
2022-12-23T14:32:49.392Z,23.60
2022-12-23T14:35:25.188Z,25.90
2022-12-23T14:38:08.606Z,26.00
2022-12-23T14:40:38.263Z,24.70
2022-12-23T14:43:26.808Z,26.60
2022-12-23T14:45:54.600Z,24.00
2022-12-23T14:48:33.369Z,25.00
2022-12-23T14:51:23.610Z,26.10
2022-12-23T14:53:54.132Z,25.20
2022-12-23T14:56:39.101Z,26.30
2022-12-23T14:59:05.749Z,26.70
2022-12-23T15:04:05.459Z,27.00
2022-12-23T15:06:45.364Z,28.30
2022-12-23T15:09:31.633Z,26.20
2022-12-23T15:12:01.941Z,25.90
2022-12-23T15:14:34.517Z,26.50
2022-12-23T15:17:18.786Z,25.90
2022-12-23T15:19:47.733Z,28.10
2022-12-23T15:22:23.650Z,26.50
2022-12-23T15:24:55.276Z,26.20
2022-12-23T15:27:30.213Z,27.20
2022-12-23T15:29:58.241Z,29.00
2022-12-23T15:32:26.799Z,28.50
2022-12-23T15:35:05.674Z,27.50
2022-12-23T15:37:33.052Z,27.60
2022-12-23T15:40:09.513Z,27.00
2022-12-23T15:42:39.328Z,27.90
2022-12-23T15:45:36.993Z,28.70
2022-12-23T15:48:06.677Z,26.50
2022-12-23T15:50:40.607Z,27.10
2022-12-23T15:53:10.801Z,25.10
2022-12-23T15:55:40.715Z,25.40
2022-12-23T15:58:07.998Z,28.30
2022-12-23T16:00:51.643Z,26.60
2022-12-23T16:03:34.564Z,27.10
2022-12-23T16:06:10.628Z,28.50
2022-12-23T16:08:38.792Z,26.50
2022-12-23T16:11:22.983Z,26.50
2022-12-23T16:14:02.371Z,26.00
2022-12-23T16:16:42.859Z,26.70
2022-12-23T16:19:51.730Z,26.60
2022-12-23T16:22:31.001Z,26.70
2022-12-23T16:25:19.917Z,25.00
2022-12-23T16:27:54.816Z,23.90
2022-12-23T16:30:25.906Z,23.90
2022-12-23T16:32:56.244Z,25.40
2022-12-23T16:35:28.455Z,25.70
2022-12-23T16:38:16.866Z,25.00
2022-12-23T16:40:46.485Z,24.00
2022-12-23T16:43:13.972Z,23.30
2022-12-23T16:45:41.321Z,22.70
2022-12-23T16:48:23.915Z,23.40
2022-12-23T16:50:53.528Z,24.00
2022-12-23T16:53:20.476Z,22.40
2022-12-23T16:55:55.061Z,22.20
2022-12-23T16:58:25.629Z,24.00
2022-12-23T17:00:53.375Z,35.30
2022-12-23T17:03:21.162Z,26.80
2022-12-23T17:05:48.560Z,25.90
2022-12-23T17:08:15.503Z,24.10
2022-12-23T17:10:44.785Z,24.70
2022-12-23T17:13:14.113Z,21.70
2022-12-23T17:15:40.936Z,23.40
2022-12-23T17:18:16.744Z,22.90
2022-12-23T17:20:46.256Z,23.40
2022-12-23T17:23:29.665Z,23.30
2022-12-23T17:25:57.177Z,23.10
2022-12-23T17:28:28.967Z,20.60
2022-12-23T17:30:56.371Z,23.30
2022-12-23T17:33:26.892Z,21.60
2022-12-23T17:35:53.596Z,23.20
2022-12-23T17:40:48.221Z,27.90
2022-12-23T17:43:16.586Z,25.00
2022-12-23T17:45:44.480Z,23.40
2022-12-23T17:48:17.933Z,25.40
2022-12-23T17:50:47.884Z,22.60
2022-12-23T17:53:19.662Z,24.30
2022-12-23T17:55:46.636Z,24.40
2022-12-23T17:58:14.688Z,24.80
2022-12-23T18:00:41.829Z,20.60
2022-12-23T18:03:23.398Z,23.90
2022-12-23T18:05:54.307Z,22.80
2022-12-23T18:08:26.007Z,23.70
2022-12-23T18:13:20.014Z,22.20
2022-12-23T18:15:47.802Z,24.00
2022-12-23T18:18:27.249Z,24.70
2022-12-23T18:20:58.463Z,23.60
2022-12-23T18:23:28.215Z,25.30
2022-12-23T18:25:56.043Z,24.00
2022-12-23T18:28:23.463Z,26.10
2022-12-23T18:30:52.324Z,23.90
2022-12-23T18:33:19.740Z,24.00
2022-12-23T18:35:49.354Z,25.00
2022-12-23T18:38:17.861Z,24.60
2022-12-23T18:40:45.537Z,25.00
2022-12-23T18:43:22.020Z,25.10
2022-12-23T18:45:53.286Z,22.40
2022-12-23T18:48:21.584Z,23.40
2022-12-23T18:50:49.021Z,27.10
2022-12-23T18:53:25.392Z,26.40
2022-12-23T18:55:53.790Z,19.80
2022-12-23T18:58:21.479Z,21.80
2022-12-23T19:00:49.595Z,22.40
2022-12-23T19:03:21.087Z,24.50
2022-12-23T19:05:49.048Z,21.40
2022-12-23T19:08:20.284Z,22.00
2022-12-23T19:10:51.542Z,23.40
2022-12-23T19:13:19.194Z,24.00
2022-12-23T19:15:46.324Z,21.70
2022-12-23T19:18:15.120Z,20.40
2022-12-23T19:20:46.057Z,21.80
2022-12-23T19:23:13.440Z,23.00
2022-12-23T19:25:42.134Z,23.40
2022-12-23T19:28:09.911Z,21.60
2022-12-23T19:30:36.921Z,22.30
2022-12-23T19:33:03.794Z,23.50
2022-12-23T19:35:30.523Z,23.10
2022-12-23T19:37:57.364Z,23.90
2022-12-23T19:40:24.114Z,24.30
2022-12-23T19:42:50.794Z,22.90
2022-12-23T19:47:44.332Z,21.60
2022-12-23T19:50:11.665Z,21.40
2022-12-23T19:52:38.423Z,22.50
2022-12-23T19:55:05.775Z,22.10
2022-12-23T19:57:33.648Z,24.10
2022-12-23T20:00:01.941Z,23.20
2022-12-23T20:02:38.803Z,22.60
2022-12-23T20:05:06.285Z,22.80
2022-12-23T20:07:35.310Z,22.60
2022-12-23T20:10:02.645Z,24.20
2022-12-23T20:12:29.330Z,25.10
2022-12-23T20:17:22.824Z,20.90
2022-12-23T20:19:49.492Z,18.10
2022-12-23T20:24:43.613Z,21.40
2022-12-23T20:27:12.130Z,24.10
2022-12-23T20:29:40.711Z,20.00
2022-12-23T20:32:07.572Z,23.40
2022-12-23T20:34:39.084Z,23.70
2022-12-23T20:37:07.007Z,24.50
2022-12-23T20:39:33.843Z,24.10
2022-12-23T20:42:00.683Z,23.40
2022-12-23T20:44:36.558Z,23.90
2022-12-23T20:47:07.423Z,22.30
2022-12-23T20:49:34.294Z,19.80
2022-12-23T20:52:01.759Z,19.30
2022-12-23T20:54:33.311Z,20.60
2022-12-23T20:57:02.524Z,20.80
2022-12-23T20:59:29.473Z,28.50
2022-12-23T21:01:59.099Z,25.00
2022-12-23T21:04:26.341Z,22.30
2022-12-23T21:06:53.016Z,23.70
2022-12-23T21:09:20.170Z,21.90
2022-12-23T21:11:48.048Z,20.60
2022-12-23T21:14:16.094Z,21.80
2022-12-23T21:16:43.029Z,21.80
2022-12-23T21:19:24.453Z,22.50
2022-12-23T21:21:52.375Z,22.80
2022-12-23T21:24:19.792Z,22.20
2022-12-23T21:26:55.738Z,20.70
2022-12-23T21:29:23.797Z,21.80
2022-12-23T21:31:50.568Z,21.70
2022-12-23T21:34:18.165Z,23.20
2022-12-23T21:36:45.032Z,23.30
2022-12-23T21:39:15.796Z,25.60
2022-12-23T21:41:42.615Z,24.80
2022-12-23T21:44:11.711Z,24.70
2022-12-23T21:46:38.442Z,26.80
2022-12-23T21:49:05.329Z,27.00
2022-12-23T21:51:41.794Z,24.20
2022-12-23T21:54:10.995Z,24.80
2022-12-23T21:56:39.195Z,24.20
2022-12-23T21:59:08.702Z,25.90
2022-12-23T22:01:35.655Z,25.00
2022-12-23T22:04:02.718Z,25.80
2022-12-23T22:06:32.817Z,26.50
2022-12-23T22:08:59.905Z,25.60
2022-12-23T22:11:30.175Z,24.70
2022-12-23T22:13:58.818Z,24.40
2022-12-23T22:16:28.109Z,24.20
2022-12-23T22:18:57.000Z,24.80
2022-12-23T22:21:25.489Z,25.10
2022-12-23T22:23:54.001Z,23.90
2022-12-23T22:26:25.605Z,25.10
2022-12-23T22:28:55.081Z,27.30
2022-12-23T22:31:31.738Z,26.80
2022-12-23T22:33:59.419Z,25.00
2022-12-23T22:36:26.868Z,23.80
2022-12-23T22:38:56.172Z,23.50
2022-12-23T22:41:24.313Z,25.90
2022-12-23T22:43:51.137Z,24.50
2022-12-23T22:46:18.552Z,24.30
2022-12-23T22:48:46.622Z,24.50
2022-12-23T22:51:16.668Z,24.50
2022-12-23T22:53:43.399Z,24.40
2022-12-23T22:56:12.729Z,26.80
2022-12-23T22:58:40.128Z,23.90
2022-12-23T23:01:16.815Z,23.70
2022-12-23T23:03:43.535Z,24.70
2022-12-23T23:06:11.631Z,24.00
2022-12-23T23:08:38.475Z,25.80
2022-12-23T23:11:05.789Z,25.10
2022-12-23T23:13:35.143Z,24.60
2022-12-23T23:16:02.713Z,25.30
2022-12-23T23:18:30.237Z,24.80
2022-12-23T23:20:57.134Z,24.30
2022-12-23T23:23:23.875Z,25.60
2022-12-23T23:25:50.679Z,25.50
2022-12-23T23:28:17.949Z,26.00
2022-12-23T23:30:45.185Z,29.10
2022-12-23T23:33:12.040Z,28.10
2022-12-23T23:35:38.661Z,26.30
2022-12-23T23:40:32.376Z,24.40
2022-12-23T23:42:59.199Z,23.70
2022-12-23T23:45:27.489Z,24.70
2022-12-23T23:47:55.062Z,23.40
2022-12-23T23:50:22.489Z,25.40
2022-12-23T23:52:49.179Z,26.50
2022-12-23T23:55:16.264Z,25.50
2022-12-23T23:57:42.912Z,26.10
